createdAt,value
2019-01-13T00:00:03.749Z,912.82
2019-01-13T00:01:03.852Z,912.83
2019-01-13T00:02:03.713Z,912.83
2019-01-13T00:03:03.641Z,912.85
2019-01-13T00:04:03.603Z,912.86
2019-01-13T00:05:03.588Z,912.88
2019-01-13T00:06:03.551Z,912.88
2019-01-13T00:07:03.661Z,912.89
2019-01-13T00:08:03.561Z,912.90
2019-01-13T00:09:03.438Z,912.92
2019-01-13T00:10:03.410Z,912.89
2019-01-13T00:11:03.388Z,912.90
2019-01-13T00:12:03.337Z,912.90
2019-01-13T00:13:03.306Z,912.89
2019-01-13T00:14:03.275Z,912.90
2019-01-13T00:15:03.256Z,912.91
2019-01-13T00:16:03.216Z,912.92
2019-01-13T00:17:03.174Z,912.99
2019-01-13T00:18:03.166Z,912.99
2019-01-13T00:19:03.128Z,913.04
2019-01-13T00:21:03.045Z,913.04
2019-01-13T00:22:03.019Z,913.02
2019-01-13T00:23:03.031Z,913.02
2019-01-13T00:24:02.957Z,913.01
2019-01-13T00:25:02.925Z,913.03
2019-01-13T00:26:02.893Z,913.00
2019-01-13T00:27:02.895Z,913.02
2019-01-13T00:28:02.805Z,913.04
2019-01-13T00:29:02.799Z,913.08
2019-01-13T00:30:02.776Z,913.16
2019-01-13T00:31:02.713Z,913.16
2019-01-13T00:32:02.689Z,913.17
2019-01-13T00:33:02.899Z,913.19
2019-01-13T00:34:02.626Z,913.15
2019-01-13T00:35:02.605Z,913.18
2019-01-13T00:36:02.565Z,913.11
2019-01-13T00:37:02.542Z,913.14
2019-01-13T00:38:02.508Z,913.14
2019-01-13T00:39:02.704Z,913.16
2019-01-13T00:40:02.407Z,913.18
2019-01-13T00:41:02.404Z,913.18
2019-01-13T00:42:02.374Z,913.16
2019-01-13T00:43:02.343Z,913.18
2019-01-13T00:44:02.337Z,913.16
2019-01-13T00:45:02.247Z,913.18
2019-01-13T00:46:02.262Z,913.17
2019-01-13T00:47:02.191Z,913.18
2019-01-13T00:48:02.163Z,913.21
2019-01-13T00:49:02.132Z,913.19
2019-01-13T00:50:02.108Z,913.20
2019-01-13T00:51:02.322Z,913.23
2019-01-13T00:52:02.021Z,913.20
2019-01-13T00:53:02.030Z,913.19
2019-01-13T00:54:01.971Z,913.19
2019-01-13T00:55:01.931Z,913.20
2019-01-13T00:56:02.089Z,913.23
2019-01-13T00:57:01.877Z,913.21
2019-01-13T00:58:01.819Z,913.25
2019-01-13T00:59:01.821Z,913.24
2019-01-13T01:00:01.764Z,913.26
2019-01-13T01:01:01.757Z,913.28
2019-01-13T01:02:01.742Z,913.31
2019-01-13T01:03:01.658Z,913.36
2019-01-13T01:04:01.619Z,913.37
2019-01-13T01:05:01.597Z,913.39
2019-01-13T01:06:01.586Z,913.40
2019-01-13T01:07:01.545Z,913.42
2019-01-13T01:08:01.536Z,913.46
2019-01-13T01:09:01.502Z,913.44
2019-01-13T01:10:01.439Z,913.50
2019-01-13T01:11:01.410Z,913.55
2019-01-13T01:12:01.389Z,913.56
2019-01-13T01:13:01.352Z,913.55
2019-01-13T01:14:01.311Z,913.57
2019-01-13T01:15:01.275Z,913.53
2019-01-13T01:16:01.252Z,913.53
2019-01-13T01:17:01.274Z,913.52
2019-01-13T01:18:01.184Z,913.56
2019-01-13T01:19:01.118Z,913.56
2019-01-13T01:20:01.098Z,913.57
2019-01-13T01:21:01.105Z,913.56
2019-01-13T01:22:01.024Z,913.56
2019-01-13T01:23:00.985Z,913.54
2019-01-13T01:24:00.958Z,913.53
2019-01-13T01:25:00.929Z,913.51
2019-01-13T01:26:00.902Z,913.53
2019-01-13T01:27:00.852Z,913.51
2019-01-13T01:28:00.815Z,913.52
2019-01-13T01:29:00.810Z,913.47
2019-01-13T01:30:00.765Z,913.46
2019-01-13T01:31:00.856Z,913.47
2019-01-13T01:32:00.690Z,913.50
2019-01-13T01:33:00.650Z,913.57
2019-01-13T01:34:00.643Z,913.62
2019-01-13T01:35:00.645Z,913.61
2019-01-13T01:36:00.591Z,913.60
2019-01-13T01:37:00.734Z,913.60
2019-01-13T01:38:00.500Z,913.62
2019-01-13T01:39:00.463Z,913.62
2019-01-13T01:40:00.431Z,913.66
2019-01-13T01:41:00.404Z,913.65
2019-01-13T01:42:00.397Z,913.62
2019-01-13T01:43:00.358Z,913.62
2019-01-13T01:44:00.286Z,913.60
2019-01-13T01:45:00.270Z,913.57
2019-01-13T01:46:00.238Z,913.57
2019-01-13T01:47:00.227Z,913.57
2019-01-13T01:48:00.379Z,913.55
2019-01-13T01:49:00.125Z,913.57
2019-01-13T01:50:00.157Z,913.57
2019-01-13T01:51:00.082Z,913.55
2019-01-13T01:52:00.035Z,913.56
2019-01-13T01:52:59.991Z,913.55
2019-01-13T01:53:59.973Z,913.57
2019-01-13T01:54:59.962Z,913.53
2019-01-13T01:55:59.891Z,913.54
2019-01-13T01:56:59.890Z,913.51
2019-01-13T01:57:59.885Z,913.49
2019-01-13T01:58:59.799Z,913.48
2019-01-13T01:59:59.779Z,913.50
2019-01-13T02:00:59.812Z,913.47
2019-01-13T02:01:59.704Z,913.43
2019-01-13T02:02:59.676Z,913.45
2019-01-13T02:03:59.640Z,913.37
2019-01-13T02:04:59.625Z,913.40
2019-01-13T02:05:59.614Z,913.41
2019-01-13T02:06:59.575Z,913.41
2019-01-13T02:07:59.537Z,913.39
2019-01-13T02:08:59.663Z,913.40
2019-01-13T02:09:59.451Z,913.39
2019-01-13T02:10:59.624Z,913.38
2019-01-13T02:11:59.396Z,913.40
2019-01-13T02:12:59.329Z,913.35
2019-01-13T02:13:59.323Z,913.37
2019-01-13T02:14:59.253Z,913.31
2019-01-13T02:15:59.213Z,913.36
2019-01-13T02:16:59.241Z,913.30
2019-01-13T02:17:59.161Z,913.31
2019-01-13T02:18:59.132Z,913.29
2019-01-13T02:19:59.098Z,913.25
2019-01-13T02:20:59.053Z,913.24
2019-01-13T02:21:59.040Z,913.21
2019-01-13T02:22:59.006Z,913.18
2019-01-13T02:23:58.962Z,913.17
2019-01-13T02:24:58.916Z,913.11
2019-01-13T02:25:58.900Z,913.11
2019-01-13T02:26:58.880Z,913.10
2019-01-13T02:27:58.860Z,913.07
2019-01-13T02:28:58.787Z,913.03
2019-01-13T02:29:58.951Z,913.03
2019-01-13T02:30:58.734Z,913.04
2019-01-13T02:31:58.697Z,913.03
2019-01-13T02:32:58.659Z,913.01
2019-01-13T02:33:58.630Z,912.98
2019-01-13T02:34:58.587Z,912.96
2019-01-13T02:35:58.726Z,912.94
2019-01-13T02:36:58.517Z,912.94
2019-01-13T02:37:58.492Z,912.89
2019-01-13T02:38:58.439Z,912.87
2019-01-13T02:39:58.452Z,912.87
2019-01-13T02:40:58.403Z,912.83
2019-01-13T02:41:58.363Z,912.85
2019-01-13T02:42:58.335Z,912.87
2019-01-13T02:43:58.293Z,912.84
2019-01-13T02:44:58.253Z,912.89
2019-01-13T02:45:58.215Z,912.88
2019-01-13T02:46:58.214Z,912.86
2019-01-13T02:47:58.156Z,912.86
2019-01-13T02:48:58.125Z,912.82
2019-01-13T02:49:58.093Z,912.82
2019-01-13T02:50:58.059Z,912.81
2019-01-13T02:51:58.642Z,912.82
2019-01-13T02:52:57.997Z,912.83
2019-01-13T02:53:57.943Z,912.80
2019-01-13T02:54:57.925Z,912.83
2019-01-13T02:55:57.917Z,912.80
2019-01-13T02:56:57.857Z,912.79
2019-01-13T02:57:57.830Z,912.78
2019-01-13T02:58:57.826Z,912.78
2019-01-13T02:59:57.747Z,912.76
2019-01-13T03:00:57.716Z,912.78
2019-01-13T03:01:57.842Z,912.79
2019-01-13T03:02:57.650Z,912.80
2019-01-13T03:03:57.616Z,912.77
2019-01-13T03:04:57.613Z,912.71
2019-01-13T03:05:57.557Z,912.73
2019-01-13T03:06:57.545Z,912.68
2019-01-13T03:07:57.682Z,912.65
2019-01-13T03:08:57.458Z,912.61
2019-01-13T03:09:57.419Z,912.59
2019-01-13T03:10:57.409Z,912.56
2019-01-13T03:11:57.377Z,912.54
2019-01-13T03:12:57.300Z,912.51
2019-01-13T03:13:57.293Z,912.51
2019-01-13T03:14:57.267Z,912.52
2019-01-13T03:15:57.237Z,912.51
2019-01-13T03:16:57.182Z,912.54
2019-01-13T03:17:57.167Z,912.50
2019-01-13T03:18:57.134Z,912.46
2019-01-13T03:19:57.078Z,912.43
2019-01-13T03:20:57.053Z,912.44
2019-01-13T03:21:57.027Z,912.41
2019-01-13T03:22:56.995Z,912.36
2019-01-13T03:23:56.965Z,912.36
2019-01-13T03:24:56.926Z,912.38
2019-01-13T03:25:56.885Z,912.45
2019-01-13T03:26:56.864Z,912.49
2019-01-13T03:27:56.890Z,912.55
2019-01-13T03:28:57.007Z,912.59
2019-01-13T03:29:56.759Z,912.62
2019-01-13T03:31:10.370Z,912.62
2019-01-13T03:31:56.686Z,912.61
2019-01-13T03:32:56.680Z,912.55
2019-01-13T03:33:56.621Z,912.57
2019-01-13T03:36:56.562Z,912.58
2019-01-13T03:37:56.540Z,912.51
2019-01-13T03:38:56.459Z,912.52
2019-01-13T03:39:56.427Z,912.48
2019-01-13T03:41:56.358Z,912.51
2019-01-13T03:42:56.327Z,912.51
2019-01-13T03:43:56.290Z,912.52
2019-01-13T03:44:56.256Z,912.51
2019-01-13T03:45:56.204Z,912.52
2019-01-13T03:46:56.179Z,912.51
2019-01-13T03:47:56.131Z,912.48
2019-01-13T03:48:56.123Z,912.49
2019-01-13T03:49:56.088Z,912.46
2019-01-13T03:50:56.832Z,912.48
2019-01-13T03:51:56.008Z,912.51
2019-01-13T03:52:55.981Z,912.50
2019-01-13T03:53:55.961Z,912.50
2019-01-13T03:54:55.934Z,912.50
2019-01-13T03:55:55.865Z,912.50
2019-01-13T03:56:55.841Z,912.51
2019-01-13T03:57:55.814Z,912.46
2019-01-13T03:58:55.791Z,912.46
2019-01-13T03:59:55.764Z,912.42
2019-01-13T04:00:55.706Z,912.45
2019-01-13T04:01:55.676Z,912.46
2019-01-13T04:02:55.653Z,912.48
2019-01-13T04:03:55.595Z,912.50
2019-01-13T04:04:55.571Z,912.49
2019-01-13T04:05:55.536Z,912.49
2019-01-13T04:06:55.670Z,912.44
2019-01-13T04:07:55.486Z,912.47
2019-01-13T04:08:55.446Z,912.48
2019-01-13T04:09:55.430Z,912.51
2019-01-13T04:10:55.380Z,912.52
2019-01-13T04:11:55.331Z,912.58
2019-01-13T04:12:55.330Z,912.61
2019-01-13T04:13:55.275Z,912.62
2019-01-13T04:14:55.241Z,912.64
2019-01-13T04:15:55.215Z,912.63
2019-01-13T04:16:55.172Z,912.65
2019-01-13T04:17:55.133Z,912.67
2019-01-13T04:18:55.127Z,912.71
2019-01-13T04:19:55.105Z,912.72
2019-01-13T04:20:55.081Z,912.72
2019-01-13T04:21:55.003Z,912.74
2019-01-13T04:22:54.970Z,912.73
2019-01-13T04:23:54.936Z,912.72
2019-01-13T04:24:54.913Z,912.74
2019-01-13T04:25:54.900Z,912.79
2019-01-13T04:26:54.839Z,912.78
2019-01-13T04:27:55.009Z,912.83
2019-01-13T04:28:54.773Z,912.84
2019-01-13T04:29:54.749Z,912.80
2019-01-13T04:30:54.714Z,912.81
2019-01-13T04:31:54.677Z,912.81
2019-01-13T04:32:54.642Z,912.78
2019-01-13T04:33:55.009Z,912.79
2019-01-13T04:34:54.574Z,912.77
2019-01-13T04:35:54.540Z,912.80
2019-01-13T04:36:54.509Z,912.81
2019-01-13T04:37:54.497Z,912.81
2019-01-13T04:38:54.454Z,912.80
2019-01-13T04:39:54.398Z,912.83
2019-01-13T04:40:54.399Z,912.77
2019-01-13T04:41:54.330Z,912.74
2019-01-13T04:42:54.285Z,912.74
2019-01-13T04:43:54.269Z,912.73
2019-01-13T04:44:54.238Z,912.73
2019-01-13T04:45:54.184Z,912.74
2019-01-13T04:46:54.167Z,912.75
2019-01-13T04:47:54.144Z,912.73
2019-01-13T04:48:54.085Z,912.69
2019-01-13T04:49:54.073Z,912.65
2019-01-13T04:50:54.041Z,912.64
2019-01-13T04:51:53.992Z,912.58
2019-01-13T04:52:53.979Z,912.60
2019-01-13T04:53:53.917Z,912.64
2019-01-13T04:54:53.900Z,912.63
2019-01-13T04:55:54.213Z,912.65
2019-01-13T04:56:53.827Z,912.65
2019-01-13T04:57:53.789Z,912.64
2019-01-13T04:58:53.770Z,912.61
2019-01-13T04:59:53.722Z,912.65
2019-01-13T05:00:53.697Z,912.65
2019-01-13T05:01:53.890Z,912.64
2019-01-13T05:02:53.617Z,912.65
2019-01-13T05:03:53.592Z,912.65
2019-01-13T05:04:53.557Z,912.67
2019-01-13T05:05:53.520Z,912.65
2019-01-13T05:06:53.495Z,912.67
2019-01-13T05:07:53.468Z,912.67
2019-01-13T05:08:53.444Z,912.69
2019-01-13T05:09:53.390Z,912.70
2019-01-13T05:10:53.368Z,912.72
2019-01-13T05:11:53.351Z,912.69
2019-01-13T05:12:53.347Z,912.68
2019-01-13T05:13:53.262Z,912.72
2019-01-13T05:14:53.219Z,912.70
2019-01-13T05:15:53.212Z,912.75
2019-01-13T05:16:53.157Z,912.76
2019-01-13T05:17:53.121Z,912.76
2019-01-13T05:18:53.095Z,912.74
2019-01-13T05:19:53.060Z,912.75
2019-01-13T05:20:53.012Z,912.71
2019-01-13T05:21:52.994Z,912.75
2019-01-13T05:22:52.939Z,912.74
2019-01-13T05:23:52.917Z,912.81
2019-01-13T05:24:52.881Z,912.77
2019-01-13T05:25:52.922Z,912.80
2019-01-13T05:26:52.822Z,912.77
2019-01-13T05:27:52.857Z,912.77
2019-01-13T05:28:52.761Z,912.79
2019-01-13T05:29:52.706Z,912.79
2019-01-13T05:30:52.665Z,912.78
2019-01-13T05:31:52.658Z,912.78
2019-01-13T05:32:52.662Z,912.77
2019-01-13T05:33:52.587Z,912.77
2019-01-13T05:34:52.545Z,912.76
2019-01-13T05:35:52.521Z,912.78
2019-01-13T05:36:52.493Z,912.76
2019-01-13T05:37:52.479Z,912.78
2019-01-13T05:38:52.551Z,912.76
2019-01-13T05:39:52.383Z,912.77
2019-01-13T05:40:52.352Z,912.75
2019-01-13T05:41:52.323Z,912.76
2019-01-13T05:42:52.285Z,912.74
2019-01-13T05:43:52.255Z,912.71
2019-01-13T05:44:52.247Z,912.72
2019-01-13T05:45:52.185Z,912.71
2019-01-13T05:46:52.142Z,912.72
2019-01-13T05:47:52.120Z,912.71
2019-01-13T05:48:52.093Z,912.75
2019-01-13T05:49:52.051Z,912.74
2019-01-13T05:50:52.000Z,912.73
2019-01-13T05:51:51.970Z,912.71
2019-01-13T05:52:51.941Z,912.70
2019-01-13T05:53:51.908Z,912.72
2019-01-13T05:54:52.146Z,912.67
2019-01-13T05:55:51.869Z,912.66
2019-01-13T05:56:51.803Z,912.60
2019-01-13T05:57:51.793Z,912.59
2019-01-13T05:58:51.738Z,912.62
2019-01-13T05:59:51.698Z,912.59
2019-01-13T06:00:51.676Z,912.60
2019-01-13T06:01:51.633Z,912.62
2019-01-13T06:02:51.607Z,912.61
2019-01-13T06:03:51.628Z,912.62
2019-01-13T06:04:51.534Z,912.63
2019-01-13T06:05:51.506Z,912.65
2019-01-13T06:06:51.488Z,912.63
2019-01-13T06:07:51.415Z,912.65
2019-01-13T06:08:51.392Z,912.62
2019-01-13T06:09:51.366Z,912.62
2019-01-13T06:10:51.337Z,912.63
2019-01-13T06:11:51.312Z,912.61
2019-01-13T06:12:51.272Z,912.60
2019-01-13T06:13:51.234Z,912.59
2019-01-13T06:14:51.202Z,912.54
2019-01-13T06:15:51.183Z,912.49
2019-01-13T06:16:51.208Z,912.49
2019-01-13T06:17:51.081Z,912.50
2019-01-13T06:18:51.071Z,912.44
2019-01-13T06:19:51.046Z,912.49
2019-01-13T06:20:51.011Z,912.53
2019-01-13T06:21:50.958Z,912.55
2019-01-13T06:22:50.940Z,912.55
2019-01-13T06:23:50.886Z,912.56
2019-01-13T06:24:50.874Z,912.57
2019-01-13T06:25:50.828Z,912.61
2019-01-13T06:26:51.058Z,912.54
2019-01-13T06:27:50.766Z,912.57
2019-01-13T06:28:50.740Z,912.54
2019-01-13T06:29:50.697Z,912.53
2019-01-13T06:30:50.667Z,912.52
2019-01-13T06:31:56.241Z,912.54
2019-01-13T06:32:50.853Z,912.46
2019-01-13T06:33:50.551Z,912.50
2019-01-13T06:34:50.534Z,912.49
2019-01-13T06:35:50.496Z,912.45
2019-01-13T06:36:50.476Z,912.44
2019-01-13T06:37:50.403Z,912.47
2019-01-13T06:38:50.388Z,912.47
2019-01-13T06:39:50.350Z,912.48
2019-01-13T06:40:50.374Z,912.49
2019-01-13T06:41:50.278Z,912.46
2019-01-13T06:42:50.244Z,912.47
2019-01-13T06:43:50.201Z,912.46
2019-01-13T06:44:50.170Z,912.43
2019-01-13T06:45:50.163Z,912.43
2019-01-13T06:46:50.129Z,912.42
2019-01-13T06:47:50.119Z,912.42
2019-01-13T06:48:50.039Z,912.42
2019-01-13T06:49:50.025Z,912.47
2019-01-13T06:50:49.990Z,912.43
2019-01-13T06:51:49.949Z,912.41
2019-01-13T06:52:49.938Z,912.44
2019-01-13T06:53:49.925Z,912.42
2019-01-13T06:54:49.858Z,912.46
2019-01-13T06:55:49.813Z,912.44
2019-01-13T06:56:49.777Z,912.48
2019-01-13T06:57:49.741Z,912.47
2019-01-13T06:58:49.720Z,912.45
2019-01-13T06:59:49.679Z,912.44
2019-01-13T07:00:49.640Z,912.47
2019-01-13T07:01:49.594Z,912.43
2019-01-13T07:02:49.576Z,912.38
2019-01-13T07:03:49.549Z,912.36
2019-01-13T07:04:49.726Z,912.38
2019-01-13T07:05:49.472Z,912.37
2019-01-13T07:06:49.450Z,912.37
2019-01-13T07:07:49.450Z,912.39
2019-01-13T07:08:49.375Z,912.39
2019-01-13T07:09:49.351Z,912.41
2019-01-13T07:10:49.301Z,912.45
2019-01-13T07:11:49.283Z,912.45
2019-01-13T07:12:49.380Z,912.46
2019-01-13T07:13:49.196Z,912.43
2019-01-13T07:14:49.168Z,912.46
2019-01-13T07:15:49.127Z,912.42
2019-01-13T07:16:49.091Z,912.42
2019-01-13T07:17:49.081Z,912.38
2019-01-13T07:18:49.039Z,912.40
2019-01-13T07:19:48.982Z,912.44
2019-01-13T07:20:48.964Z,912.43
2019-01-13T07:21:48.946Z,912.48
2019-01-13T07:22:48.894Z,912.48
2019-01-13T07:23:48.841Z,912.49
2019-01-13T07:24:48.835Z,912.48
2019-01-13T07:25:48.807Z,912.54
2019-01-13T07:26:48.753Z,912.57
2019-01-13T07:27:48.722Z,912.56
2019-01-13T07:28:48.685Z,912.56
2019-01-13T07:29:48.655Z,912.55
2019-01-13T07:30:48.677Z,912.52
2019-01-13T07:31:48.666Z,912.54
2019-01-13T07:32:48.558Z,912.54
2019-01-13T07:33:48.608Z,912.55
2019-01-13T07:34:48.497Z,912.53
2019-01-13T07:35:48.453Z,912.53
2019-01-13T07:36:48.419Z,912.51
2019-01-13T07:37:48.666Z,912.54
2019-01-13T07:38:48.421Z,912.53
2019-01-13T07:39:48.332Z,912.53
2019-01-13T07:40:48.265Z,912.55
2019-01-13T07:41:48.269Z,912.58
2019-01-13T07:42:48.215Z,912.58
2019-01-13T07:43:48.186Z,912.60
2019-01-13T07:44:48.151Z,912.61
2019-01-13T07:45:48.122Z,912.58
2019-01-13T07:46:48.061Z,912.64
2019-01-13T07:47:48.059Z,912.65
2019-01-13T07:48:48.018Z,912.68
2019-01-13T07:49:47.970Z,912.66
2019-01-13T07:50:48.145Z,912.70
2019-01-13T07:51:47.906Z,912.71
2019-01-13T07:52:47.865Z,912.70
2019-01-13T07:53:47.847Z,912.73
2019-01-13T07:54:47.812Z,912.67
2019-01-13T07:55:47.777Z,912.69
2019-01-13T07:56:47.773Z,912.69
2019-01-13T07:57:47.698Z,912.73
2019-01-13T07:58:47.667Z,912.74
2019-01-13T07:59:47.659Z,912.73
2019-01-13T08:00:47.614Z,912.71
2019-01-13T08:01:47.572Z,912.71
2019-01-13T08:02:47.541Z,912.73
2019-01-13T08:03:47.514Z,912.73
2019-01-13T08:04:47.480Z,912.75
2019-01-13T08:05:47.433Z,912.75
2019-01-13T08:06:47.413Z,912.77
2019-01-13T08:07:47.721Z,912.83
2019-01-13T08:08:47.319Z,912.82
2019-01-13T08:09:47.311Z,912.85
2019-01-13T08:10:47.262Z,912.85
2019-01-13T08:11:47.232Z,912.82
2019-01-13T08:12:47.208Z,912.82
2019-01-13T08:13:47.218Z,912.82
2019-01-13T08:14:47.125Z,912.86
2019-01-13T08:15:47.110Z,912.85
2019-01-13T08:16:47.170Z,912.84
2019-01-13T08:17:47.036Z,912.82
2019-01-13T08:18:47.011Z,912.85
2019-01-13T08:19:46.974Z,912.86
2019-01-13T08:20:46.943Z,912.93
2019-01-13T08:21:46.866Z,912.93
2019-01-13T08:22:46.865Z,912.94
2019-01-13T08:23:47.260Z,912.93
2019-01-13T08:24:46.802Z,912.95
2019-01-13T08:25:46.779Z,912.96
2019-01-13T08:26:46.711Z,912.97
2019-01-13T08:27:46.697Z,912.96
2019-01-13T08:28:46.656Z,912.97
2019-01-13T08:29:46.715Z,912.95
2019-01-13T08:30:46.585Z,913.00
2019-01-13T08:31:46.547Z,912.97
2019-01-13T08:32:46.536Z,912.98
2019-01-13T08:33:46.488Z,912.98
2019-01-13T08:34:46.455Z,912.98
2019-01-13T08:35:46.405Z,912.98
2019-01-13T08:36:46.364Z,913.00
2019-01-13T08:37:46.346Z,913.06
2019-01-13T08:38:46.309Z,913.07
2019-01-13T08:39:46.275Z,913.06
2019-01-13T08:40:46.222Z,913.07
2019-01-13T08:41:46.206Z,913.05
2019-01-13T08:42:46.174Z,913.05
2019-01-13T08:43:46.153Z,913.04
2019-01-13T08:44:46.131Z,913.07
2019-01-13T08:45:50.292Z,913.05
2019-01-13T08:46:46.042Z,913.07
2019-01-13T08:47:45.994Z,913.06
2019-01-13T08:48:45.960Z,913.07
2019-01-13T08:49:45.923Z,913.09
2019-01-13T08:50:46.049Z,913.08
2019-01-13T08:51:45.852Z,913.08
2019-01-13T08:52:45.847Z,913.06
2019-01-13T08:53:45.796Z,913.09
2019-01-13T08:54:45.750Z,913.10
2019-01-13T08:55:45.724Z,913.08
2019-01-13T08:56:45.698Z,913.11
2019-01-13T08:57:45.678Z,913.12
2019-01-13T08:58:45.613Z,913.09
2019-01-13T08:59:45.594Z,913.12
2019-01-13T09:00:45.567Z,913.15
2019-01-13T09:01:45.540Z,913.17
2019-01-13T09:02:45.482Z,913.21
2019-01-13T09:03:45.446Z,913.23
2019-01-13T09:04:45.427Z,913.26
2019-01-13T09:05:45.388Z,913.26
2019-01-13T09:06:45.348Z,913.25
2019-01-13T09:07:45.316Z,913.23
2019-01-13T09:08:45.308Z,913.22
2019-01-13T09:09:45.250Z,913.20
2019-01-13T09:10:45.228Z,913.19
2019-01-13T09:11:45.186Z,913.20
2019-01-13T09:12:45.148Z,913.20
2019-01-13T09:13:45.113Z,913.23
2019-01-13T09:14:45.100Z,913.24
2019-01-13T09:15:45.055Z,913.26
2019-01-13T09:16:45.012Z,913.24
2019-01-13T09:17:45.136Z,913.28
2019-01-13T09:18:44.936Z,913.30
2019-01-13T09:19:44.901Z,913.30
2019-01-13T09:20:44.874Z,913.28
2019-01-13T09:21:44.859Z,913.28
2019-01-13T09:22:44.817Z,913.31
2019-01-13T09:23:44.769Z,913.32
2019-01-13T09:24:44.739Z,913.34
2019-01-13T09:25:44.686Z,913.40
2019-01-13T09:26:50.762Z,913.38
2019-01-13T09:27:44.646Z,913.44
2019-01-13T09:28:44.595Z,913.47
2019-01-13T09:29:44.566Z,913.46
2019-01-13T09:30:44.544Z,913.43
2019-01-13T09:31:44.498Z,913.42
2019-01-13T09:32:44.482Z,913.40
2019-01-13T09:33:44.442Z,913.40
2019-01-13T09:34:44.381Z,913.46
2019-01-13T09:35:44.381Z,913.46
2019-01-13T09:36:44.323Z,913.46
2019-01-13T09:37:44.296Z,913.44
2019-01-13T09:38:44.262Z,913.47
2019-01-13T09:39:44.385Z,913.48
2019-01-13T09:40:44.193Z,913.49
2019-01-13T09:41:44.170Z,913.50
2019-01-13T09:42:44.134Z,913.50
2019-01-13T09:43:44.094Z,913.56
2019-01-13T09:44:44.068Z,913.53
2019-01-13T09:45:44.045Z,913.51
2019-01-13T09:46:43.974Z,913.52
2019-01-13T09:47:43.956Z,913.53
2019-01-13T09:48:43.924Z,913.51
2019-01-13T09:49:49.872Z,913.55
2019-01-13T09:50:43.829Z,913.52
2019-01-13T09:51:43.818Z,913.56
2019-01-13T09:52:43.778Z,913.53
2019-01-13T09:53:43.739Z,913.52
2019-01-13T09:54:43.717Z,913.56
2019-01-13T09:55:43.869Z,913.59
2019-01-13T09:56:43.634Z,913.61
2019-01-13T09:57:43.604Z,913.57
2019-01-13T09:58:43.578Z,913.58
2019-01-13T09:59:43.534Z,913.58
2019-01-13T10:00:43.508Z,913.56
2019-01-13T10:01:43.478Z,913.54
2019-01-13T10:02:46.777Z,913.59
2019-01-13T10:03:43.420Z,913.57
2019-01-13T10:04:43.373Z,913.56
2019-01-13T10:05:43.342Z,913.60
2019-01-13T10:06:43.297Z,913.62
2019-01-13T10:07:43.270Z,913.63
2019-01-13T10:08:43.227Z,913.63
2019-01-13T10:09:43.193Z,913.66
2019-01-13T10:10:43.880Z,913.69
2019-01-13T10:11:43.143Z,913.72
2019-01-13T10:12:43.087Z,913.74
2019-01-13T10:13:43.068Z,913.77
2019-01-13T10:14:43.031Z,913.79
2019-01-13T10:15:42.993Z,913.80
2019-01-13T10:16:43.123Z,913.79
2019-01-13T10:17:42.932Z,913.78
2019-01-13T10:18:42.921Z,913.81
2019-01-13T10:19:42.855Z,913.85
2019-01-13T10:20:43.006Z,913.82
2019-01-13T10:21:42.789Z,913.84
2019-01-13T10:22:42.957Z,913.86
2019-01-13T10:23:42.728Z,913.87
2019-01-13T10:24:42.676Z,913.85
2019-01-13T10:25:42.659Z,913.88
2019-01-13T10:26:42.636Z,913.87
2019-01-13T10:27:42.588Z,913.86
2019-01-13T10:28:42.562Z,913.86
2019-01-13T10:29:42.531Z,913.87
2019-01-13T10:30:42.488Z,913.88
2019-01-13T10:31:42.457Z,913.88
2019-01-13T10:32:42.422Z,913.90
2019-01-13T10:33:42.735Z,913.90
2019-01-13T10:34:42.354Z,913.92
2019-01-13T10:35:42.318Z,913.98
2019-01-13T10:36:42.277Z,914.01
2019-01-13T10:37:42.232Z,914.03
2019-01-13T10:38:42.203Z,914.08
2019-01-13T10:39:42.163Z,914.03
2019-01-13T10:40:42.152Z,914.05
2019-01-13T10:41:42.119Z,914.03
2019-01-13T10:42:42.070Z,914.00
2019-01-13T10:43:42.052Z,914.01
2019-01-13T10:44:42.000Z,913.98
2019-01-13T10:45:41.980Z,914.01
2019-01-13T10:46:41.935Z,914.00
2019-01-13T10:47:41.915Z,913.96
2019-01-13T10:48:41.928Z,913.97
2019-01-13T10:49:41.852Z,913.97
2019-01-13T10:50:41.832Z,913.98
2019-01-13T10:51:41.770Z,914.00
2019-01-13T10:52:41.767Z,914.05
2019-01-13T10:53:41.709Z,914.08
2019-01-13T10:54:41.685Z,914.09
2019-01-13T10:55:41.641Z,914.06
2019-01-13T10:56:41.615Z,914.08
2019-01-13T10:57:41.564Z,914.11
2019-01-13T10:58:41.550Z,914.12
2019-01-13T10:59:41.533Z,914.17
2019-01-13T11:00:41.477Z,914.21
2019-01-13T11:01:41.460Z,914.22
2019-01-13T11:02:41.422Z,914.21
2019-01-13T11:03:41.380Z,914.21
2019-01-13T11:04:41.333Z,914.17
2019-01-13T11:05:41.320Z,914.20
2019-01-13T11:06:41.257Z,914.18
2019-01-13T11:07:41.246Z,914.21
2019-01-13T11:08:41.197Z,914.23
2019-01-13T11:09:41.183Z,914.23
2019-01-13T11:10:41.162Z,914.23
2019-01-13T11:11:41.112Z,914.26
2019-01-13T11:12:41.105Z,914.29
2019-01-13T11:13:41.032Z,914.29
2019-01-13T11:14:41.028Z,914.27
2019-01-13T11:15:40.982Z,914.29
2019-01-13T11:16:41.146Z,914.28
2019-01-13T11:17:40.932Z,914.28
2019-01-13T11:18:40.879Z,914.33
2019-01-13T11:19:40.835Z,914.30
2019-01-13T11:20:40.794Z,914.30
2019-01-13T11:21:40.796Z,914.31
2019-01-13T11:22:40.902Z,914.32
2019-01-13T11:23:40.712Z,914.30
2019-01-13T11:24:40.687Z,914.31
2019-01-13T11:25:40.641Z,914.28
2019-01-13T11:26:40.587Z,914.28
2019-01-13T11:27:40.555Z,914.26
2019-01-13T11:28:40.559Z,914.30
2019-01-13T11:29:40.502Z,914.24
2019-01-13T11:30:40.478Z,914.26
2019-01-13T11:31:40.471Z,914.29
2019-01-13T11:32:40.401Z,914.26
2019-01-13T11:33:40.364Z,914.26
2019-01-13T11:34:40.337Z,914.28
2019-01-13T11:35:40.324Z,914.29
2019-01-13T11:36:40.275Z,914.28
2019-01-13T11:37:40.235Z,914.31
2019-01-13T11:38:40.203Z,914.32
2019-01-13T11:39:40.199Z,914.33
2019-01-13T11:40:40.145Z,914.34
2019-01-13T11:41:40.153Z,914.32
2019-01-13T11:42:40.073Z,914.37
2019-01-13T11:43:40.256Z,914.40
2019-01-13T11:44:40.015Z,914.40
2019-01-13T11:45:39.983Z,914.38
2019-01-13T11:46:39.950Z,914.40
2019-01-13T11:47:39.924Z,914.44
2019-01-13T11:48:39.895Z,914.45
2019-01-13T11:49:40.020Z,914.47
2019-01-13T11:50:39.823Z,914.46
2019-01-13T11:51:39.880Z,914.45
2019-01-13T11:52:39.759Z,914.49
2019-01-13T11:53:39.701Z,914.49
2019-01-13T11:54:39.688Z,914.48
2019-01-13T11:55:39.651Z,914.50
2019-01-13T11:56:39.627Z,914.51
2019-01-13T11:57:39.594Z,914.49
2019-01-13T11:58:39.551Z,914.52
2019-01-13T11:59:39.534Z,914.52
2019-01-13T12:00:39.526Z,914.52
2019-01-13T12:01:39.454Z,914.53
2019-01-13T12:02:39.449Z,914.54
2019-01-13T12:03:39.394Z,914.53
2019-01-13T12:04:39.350Z,914.58
2019-01-13T12:05:39.339Z,914.55
2019-01-13T12:06:39.595Z,914.61
2019-01-13T12:07:39.281Z,914.59
2019-01-13T12:08:39.252Z,914.61
2019-01-13T12:09:39.209Z,914.62
2019-01-13T12:10:39.147Z,914.62
2019-01-13T12:11:39.138Z,914.61
2019-01-13T12:12:39.118Z,914.59
2019-01-13T12:13:39.092Z,914.62
2019-01-13T12:14:39.045Z,914.60
2019-01-13T12:15:39.052Z,914.64
2019-01-13T12:16:39.002Z,914.66
2019-01-13T12:17:38.942Z,914.66
2019-01-13T12:18:40.643Z,914.62
2019-01-13T12:19:38.879Z,914.67
2019-01-13T12:20:38.843Z,914.66
2019-01-13T12:21:38.795Z,914.68
2019-01-13T12:22:38.789Z,914.70
2019-01-13T12:23:38.765Z,914.68
2019-01-13T12:24:38.696Z,914.71
2019-01-13T12:25:38.696Z,914.72
2019-01-13T12:26:38.651Z,914.73
2019-01-13T12:27:38.644Z,914.74
2019-01-13T12:28:38.724Z,914.72
2019-01-13T12:29:38.577Z,914.72
2019-01-13T12:30:38.525Z,914.71
2019-01-13T12:31:38.660Z,914.73